sensor_id;sensor_type;location;lat;lon;timestamp;temperature;humidity
11647;DHT22;5880;52.342;9.662;2023-02-27T00:00:55;2.80;51.80
11647;DHT22;5880;52.342;9.662;2023-02-27T00:03:23;2.80;51.60
11647;DHT22;5880;52.342;9.662;2023-02-27T00:05:49;2.80;51.60
11647;DHT22;5880;52.342;9.662;2023-02-27T00:08:15;2.80;51.70
11647;DHT22;5880;52.342;9.662;2023-02-27T00:10:40;2.80;51.80
11647;DHT22;5880;52.342;9.662;2023-02-27T00:13:06;2.80;51.80
11647;DHT22;5880;52.342;9.662;2023-02-27T00:15:32;2.80;51.70
11647;DHT22;5880;52.342;9.662;2023-02-27T00:17:58;2.80;51.60
11647;DHT22;5880;52.342;9.662;2023-02-27T00:20:25;2.70;51.80
11647;DHT22;5880;52.342;9.662;2023-02-27T00:22:51;2.70;51.80
11647;DHT22;5880;52.342;9.662;2023-02-27T00:25:17;2.70;51.70
11647;DHT22;5880;52.342;9.662;2023-02-27T00:27:43;2.70;51.80
11647;DHT22;5880;52.342;9.662;2023-02-27T00:30:11;2.70;51.90
11647;DHT22;5880;52.342;9.662;2023-02-27T00:32:39;2.70;52.10
11647;DHT22;5880;52.342;9.662;2023-02-27T00:35:08;3.40;52.30
11647;DHT22;5880;52.342;9.662;2023-02-27T00:37:36;2.60;52.10
11647;DHT22;5880;52.342;9.662;2023-02-27T00:40:02;2.60;52.10
11647;DHT22;5880;52.342;9.662;2023-02-27T00:42:29;2.60;52.00
11647;DHT22;5880;52.342;9.662;2023-02-27T00:44:56;2.60;52.10
11647;DHT22;5880;52.342;9.662;2023-02-27T00:47:22;2.60;52.00
11647;DHT22;5880;52.342;9.662;2023-02-27T00:49:47;2.60;52.10
11647;DHT22;5880;52.342;9.662;2023-02-27T00:52:13;2.50;52.30
11647;DHT22;5880;52.342;9.662;2023-02-27T00:54:39;2.50;52.10
11647;DHT22;5880;52.342;9.662;2023-02-27T00:57:04;2.50;52.10
11647;DHT22;5880;52.342;9.662;2023-02-27T00:59:30;2.50;52.10
11647;DHT22;5880;52.342;9.662;2023-02-27T01:01:56;2.50;52.20
11647;DHT22;5880;52.342;9.662;2023-02-27T01:04:22;2.50;52.30
11647;DHT22;5880;52.342;9.662;2023-02-27T01:06:47;2.40;52.20
11647;DHT22;5880;52.342;9.662;2023-02-27T01:09:13;2.40;52.30
11647;DHT22;5880;52.342;9.662;2023-02-27T01:11:38;2.40;52.40
11647;DHT22;5880;52.342;9.662;2023-02-27T01:14:04;2.40;52.50
11647;DHT22;5880;52.342;9.662;2023-02-27T01:16:30;2.40;52.50
11647;DHT22;5880;52.342;9.662;2023-02-27T01:18:55;2.40;52.70
11647;DHT22;5880;52.342;9.662;2023-02-27T01:21:22;2.40;52.70
11647;DHT22;5880;52.342;9.662;2023-02-27T01:23:48;2.40;52.60
11647;DHT22;5880;52.342;9.662;2023-02-27T01:26:14;2.40;52.70
11647;DHT22;5880;52.342;9.662;2023-02-27T01:28:39;2.40;52.70
11647;DHT22;5880;52.342;9.662;2023-02-27T01:31:05;2.40;52.70
11647;DHT22;5880;52.342;9.662;2023-02-27T01:33:31;2.30;52.70
11647;DHT22;5880;52.342;9.662;2023-02-27T01:35:56;2.30;52.70
11647;DHT22;5880;52.342;9.662;2023-02-27T01:38:22;2.30;52.70
11647;DHT22;5880;52.342;9.662;2023-02-27T01:40:47;2.30;52.70
11647;DHT22;5880;52.342;9.662;2023-02-27T01:43:15;2.30;52.80
11647;DHT22;5880;52.342;9.662;2023-02-27T01:45:45;2.30;52.90
11647;DHT22;5880;52.342;9.662;2023-02-27T01:48:24;2.30;52.90
11647;DHT22;5880;52.342;9.662;2023-02-27T01:51:17;2.30;53.40
11647;DHT22;5880;52.342;9.662;2023-02-27T01:53:47;2.30;53.70
11647;DHT22;5880;52.342;9.662;2023-02-27T01:56:23;2.30;53.00
11647;DHT22;5880;52.342;9.662;2023-02-27T01:58:53;2.30;53.30
11647;DHT22;5880;52.342;9.662;2023-02-27T02:01:23;2.30;53.00
11647;DHT22;5880;52.342;9.662;2023-02-27T02:07:09;2.20;53.60
11647;DHT22;5880;52.342;9.662;2023-02-27T02:09:41;2.20;53.50
11647;DHT22;5880;52.342;9.662;2023-02-27T02:12:13;2.20;53.00
11647;DHT22;5880;52.342;9.662;2023-02-27T02:14:40;2.20;53.20
11647;DHT22;5880;52.342;9.662;2023-02-27T02:29:03;2.20;53.50
11647;DHT22;5880;52.342;9.662;2023-02-27T02:41:17;2.20;53.80
11647;DHT22;5880;52.342;9.662;2023-02-27T02:43:59;2.20;53.20
11647;DHT22;5880;52.342;9.662;2023-02-27T02:49:48;2.10;53.60
11647;DHT22;5880;52.342;9.662;2023-02-27T02:52:58;2.10;53.50
11647;DHT22;5880;52.342;9.662;2023-02-27T02:55:47;2.10;53.80
11647;DHT22;5880;52.342;9.662;2023-02-27T02:58:31;2.10;53.40
11647;DHT22;5880;52.342;9.662;2023-02-27T03:01:16;2.10;53.50
11647;DHT22;5880;52.342;9.662;2023-02-27T03:03:50;2.00;53.80
11647;DHT22;5880;52.342;9.662;2023-02-27T03:06:29;2.10;53.60
11647;DHT22;5880;52.342;9.662;2023-02-27T03:09:04;2.10;53.80
11647;DHT22;5880;52.342;9.662;2023-02-27T03:11:38;2.00;53.60
11647;DHT22;5880;52.342;9.662;2023-02-27T03:14:15;2.00;53.50
11647;DHT22;5880;52.342;9.662;2023-02-27T03:16:50;2.00;53.70
11647;DHT22;5880;52.342;9.662;2023-02-27T03:19:53;2.00;53.50
11647;DHT22;5880;52.342;9.662;2023-02-27T03:22:22;1.90;53.30
11647;DHT22;5880;52.342;9.662;2023-02-27T03:24:58;1.90;53.60
11647;DHT22;5880;52.342;9.662;2023-02-27T03:27:32;1.90;53.60
11647;DHT22;5880;52.342;9.662;2023-02-27T03:32:47;1.90;53.90
11647;DHT22;5880;52.342;9.662;2023-02-27T03:35:36;1.80;53.50
11647;DHT22;5880;52.342;9.662;2023-02-27T03:38:42;1.80;54.00
11647;DHT22;5880;52.342;9.662;2023-02-27T03:41:14;1.80;54.10
11647;DHT22;5880;52.342;9.662;2023-02-27T03:47:04;1.80;54.20
11647;DHT22;5880;52.342;9.662;2023-02-27T03:49:29;1.80;53.50
11647;DHT22;5880;52.342;9.662;2023-02-27T03:51:55;1.70;53.60
11647;DHT22;5880;52.342;9.662;2023-02-27T03:54:26;1.70;53.70
11647;DHT22;5880;52.342;9.662;2023-02-27T03:57:04;1.70;54.00
11647;DHT22;5880;52.342;9.662;2023-02-27T03:59:32;1.70;54.10
11647;DHT22;5880;52.342;9.662;2023-02-27T04:02:01;1.70;53.80
11647;DHT22;5880;52.342;9.662;2023-02-27T04:04:28;1.70;53.90
11647;DHT22;5880;52.342;9.662;2023-02-27T04:19:35;1.60;54.30
11647;DHT22;5880;52.342;9.662;2023-02-27T04:25:26;1.60;53.60
11647;DHT22;5880;52.342;9.662;2023-02-27T04:28:13;1.60;54.50
11647;DHT22;5880;52.342;9.662;2023-02-27T04:31:04;1.60;54.40
11647;DHT22;5880;52.342;9.662;2023-02-27T04:33:41;1.60;54.40
11647;DHT22;5880;52.342;9.662;2023-02-27T04:36:25;1.70;54.50
11647;DHT22;5880;52.342;9.662;2023-02-27T04:39:05;1.60;54.60
11647;DHT22;5880;52.342;9.662;2023-02-27T04:41:49;1.60;54.80
11647;DHT22;5880;52.342;9.662;2023-02-27T04:44:20;1.60;54.30
11647;DHT22;5880;52.342;9.662;2023-02-27T04:46:49;1.50;54.50
11647;DHT22;5880;52.342;9.662;2023-02-27T04:49:27;1.60;54.70
11647;DHT22;5880;52.342;9.662;2023-02-27T04:54:38;1.60;55.00
11647;DHT22;5880;52.342;9.662;2023-02-27T04:57:18;1.60;54.80
11647;DHT22;5880;52.342;9.662;2023-02-27T04:59:51;1.60;55.00
11647;DHT22;5880;52.342;9.662;2023-02-27T05:02:33;1.70;55.00
11647;DHT22;5880;52.342;9.662;2023-02-27T05:05:05;1.60;55.50
11647;DHT22;5880;52.342;9.662;2023-02-27T05:07:42;1.70;55.30
11647;DHT22;5880;52.342;9.662;2023-02-27T05:10:22;1.70;55.30
11647;DHT22;5880;52.342;9.662;2023-02-27T05:13:09;1.80;55.40
11647;DHT22;5880;52.342;9.662;2023-02-27T05:15:48;1.80;55.30
11647;DHT22;5880;52.342;9.662;2023-02-27T05:18:20;1.80;55.10
11647;DHT22;5880;52.342;9.662;2023-02-27T05:24:03;1.70;55.40
11647;DHT22;5880;52.342;9.662;2023-02-27T05:26:40;1.80;55.40
11647;DHT22;5880;52.342;9.662;2023-02-27T05:29:27;1.70;54.70
11647;DHT22;5880;52.342;9.662;2023-02-27T05:32:13;1.80;55.50
11647;DHT22;5880;52.342;9.662;2023-02-27T05:40:29;1.90;55.70
11647;DHT22;5880;52.342;9.662;2023-02-27T05:45:46;2.00;56.40
11647;DHT22;5880;52.342;9.662;2023-02-27T05:48:21;2.00;56.50
11647;DHT22;5880;52.342;9.662;2023-02-27T05:50:52;2.10;56.60
11647;DHT22;5880;52.342;9.662;2023-02-27T05:53:21;2.10;56.40
11647;DHT22;5880;52.342;9.662;2023-02-27T05:55:53;2.20;56.50
11647;DHT22;5880;52.342;9.662;2023-02-27T05:58:25;2.20;56.50
11647;DHT22;5880;52.342;9.662;2023-02-27T06:01:02;2.30;56.50
11647;DHT22;5880;52.342;9.662;2023-02-27T06:03:32;2.30;56.80
11647;DHT22;5880;52.342;9.662;2023-02-27T06:06:02;2.40;56.50
11647;DHT22;5880;52.342;9.662;2023-02-27T06:08:30;2.40;56.60
11647;DHT22;5880;52.342;9.662;2023-02-27T06:10:56;2.40;56.40
11647;DHT22;5880;52.342;9.662;2023-02-27T06:13:23;2.50;56.60
11647;DHT22;5880;52.342;9.662;2023-02-27T06:15:49;2.60;56.80
11647;DHT22;5880;52.342;9.662;2023-02-27T06:18:15;2.60;56.70
11647;DHT22;5880;52.342;9.662;2023-02-27T06:20:43;2.80;56.90
11647;DHT22;5880;52.342;9.662;2023-02-27T06:23:10;2.70;57.00
11647;DHT22;5880;52.342;9.662;2023-02-27T06:25:36;2.70;57.00
11647;DHT22;5880;52.342;9.662;2023-02-27T06:28:02;2.70;56.90
11647;DHT22;5880;52.342;9.662;2023-02-27T06:30:28;2.70;56.80
11647;DHT22;5880;52.342;9.662;2023-02-27T06:32:54;2.80;56.80
11647;DHT22;5880;52.342;9.662;2023-02-27T06:35:20;2.80;56.80
11647;DHT22;5880;52.342;9.662;2023-02-27T06:37:46;2.90;56.90
11647;DHT22;5880;52.342;9.662;2023-02-27T06:40:11;2.90;56.90
11647;DHT22;5880;52.342;9.662;2023-02-27T06:42:42;2.90;57.70
11647;DHT22;5880;52.342;9.662;2023-02-27T06:45:12;2.90;56.90
11647;DHT22;5880;52.342;9.662;2023-02-27T06:47:39;3.00;56.80
11647;DHT22;5880;52.342;9.662;2023-02-27T06:50:07;3.00;56.80
11647;DHT22;5880;52.342;9.662;2023-02-27T06:52:35;3.00;56.80
11647;DHT22;5880;52.342;9.662;2023-02-27T06:55:02;3.00;56.70
11647;DHT22;5880;52.342;9.662;2023-02-27T06:57:29;3.00;56.60
11647;DHT22;5880;52.342;9.662;2023-02-27T06:59:55;3.00;56.70
11647;DHT22;5880;52.342;9.662;2023-02-27T07:02:21;3.10;57.70
11647;DHT22;5880;52.342;9.662;2023-02-27T07:04:49;3.10;57.00
11647;DHT22;5880;52.342;9.662;2023-02-27T07:07:14;3.10;57.00
11647;DHT22;5880;52.342;9.662;2023-02-27T07:09:40;3.10;57.00
11647;DHT22;5880;52.342;9.662;2023-02-27T07:12:06;3.10;57.10
11647;DHT22;5880;52.342;9.662;2023-02-27T07:14:32;3.20;57.20
11647;DHT22;5880;52.342;9.662;2023-02-27T07:16:58;3.20;57.20
11647;DHT22;5880;52.342;9.662;2023-02-27T07:19:27;3.20;57.30
11647;DHT22;5880;52.342;9.662;2023-02-27T07:21:53;3.30;57.50
11647;DHT22;5880;52.342;9.662;2023-02-27T07:24:19;3.30;57.50
11647;DHT22;5880;52.342;9.662;2023-02-27T07:26:45;3.40;57.60
11647;DHT22;5880;52.342;9.662;2023-02-27T07:29:10;3.40;57.70
11647;DHT22;5880;52.342;9.662;2023-02-27T07:31:39;3.50;57.80
11647;DHT22;5880;52.342;9.662;2023-02-27T07:34:05;3.70;57.90
11647;DHT22;5880;52.342;9.662;2023-02-27T07:36:31;3.60;57.70
11647;DHT22;5880;52.342;9.662;2023-02-27T07:38:58;3.70;57.80
11647;DHT22;5880;52.342;9.662;2023-02-27T07:41:24;3.80;57.70
11647;DHT22;5880;52.342;9.662;2023-02-27T07:43:50;3.80;57.70
11647;DHT22;5880;52.342;9.662;2023-02-27T07:46:16;3.90;57.90
11647;DHT22;5880;52.342;9.662;2023-02-27T07:48:41;4.00;57.90
11647;DHT22;5880;52.342;9.662;2023-02-27T07:51:07;4.00;57.80
11647;DHT22;5880;52.342;9.662;2023-02-27T07:53:33;4.10;57.80
11647;DHT22;5880;52.342;9.662;2023-02-27T07:55:59;4.50;57.90
11647;DHT22;5880;52.342;9.662;2023-02-27T07:58:24;4.20;57.30
11647;DHT22;5880;52.342;9.662;2023-02-27T08:00:52;4.20;57.00
11647;DHT22;5880;52.342;9.662;2023-02-27T08:03:18;4.30;57.00
11647;DHT22;5880;52.342;9.662;2023-02-27T08:05:44;4.30;56.80
11647;DHT22;5880;52.342;9.662;2023-02-27T08:08:09;4.30;56.60
11647;DHT22;5880;52.342;9.662;2023-02-27T08:10:35;4.30;56.50
11647;DHT22;5880;52.342;9.662;2023-02-27T08:13:01;4.30;56.50
11647;DHT22;5880;52.342;9.662;2023-02-27T08:15:26;4.30;56.50
11647;DHT22;5880;52.342;9.662;2023-02-27T08:17:52;4.30;56.40
11647;DHT22;5880;52.342;9.662;2023-02-27T08:20:18;4.30;56.40
11647;DHT22;5880;52.342;9.662;2023-02-27T08:22:47;4.30;56.60
11647;DHT22;5880;52.342;9.662;2023-02-27T08:25:13;4.30;56.70
11647;DHT22;5880;52.342;9.662;2023-02-27T08:27:40;4.30;56.90
11647;DHT22;5880;52.342;9.662;2023-02-27T08:30:08;4.30;57.00
11647;DHT22;5880;52.342;9.662;2023-02-27T08:32:36;4.30;57.30
11647;DHT22;5880;52.342;9.662;2023-02-27T08:35:03;4.40;57.50
11647;DHT22;5880;52.342;9.662;2023-02-27T08:37:29;4.50;58.00
11647;DHT22;5880;52.342;9.662;2023-02-27T08:39:55;4.50;58.10
11647;DHT22;5880;52.342;9.662;2023-02-27T08:42:21;4.60;58.10
11647;DHT22;5880;52.342;9.662;2023-02-27T08:44:47;4.70;57.80
11647;DHT22;5880;52.342;9.662;2023-02-27T08:47:15;4.70;57.40
11647;DHT22;5880;52.342;9.662;2023-02-27T08:49:41;4.80;56.80
11647;DHT22;5880;52.342;9.662;2023-02-27T08:52:07;4.80;56.60
11647;DHT22;5880;52.342;9.662;2023-02-27T08:54:35;4.80;56.60
11647;DHT22;5880;52.342;9.662;2023-02-27T08:57:02;4.80;56.50
11647;DHT22;5880;52.342;9.662;2023-02-27T08:59:29;4.80;56.60
11647;DHT22;5880;52.342;9.662;2023-02-27T09:01:55;4.80;56.40
11647;DHT22;5880;52.342;9.662;2023-02-27T09:04:20;4.80;56.50
11647;DHT22;5880;52.342;9.662;2023-02-27T09:06:46;4.80;56.40
11647;DHT22;5880;52.342;9.662;2023-02-27T09:09:12;4.90;56.60
11647;DHT22;5880;52.342;9.662;2023-02-27T09:11:38;4.90;56.60
11647;DHT22;5880;52.342;9.662;2023-02-27T09:14:04;4.90;56.70
11647;DHT22;5880;52.342;9.662;2023-02-27T09:16:30;4.90;56.60
11647;DHT22;5880;52.342;9.662;2023-02-27T09:18:55;4.90;56.60
11647;DHT22;5880;52.342;9.662;2023-02-27T09:21:21;4.90;56.60
11647;DHT22;5880;52.342;9.662;2023-02-27T09:23:49;4.90;56.90
11647;DHT22;5880;52.342;9.662;2023-02-27T09:26:16;5.50;58.60
11647;DHT22;5880;52.342;9.662;2023-02-27T09:28:42;5.10;60.40
11647;DHT22;5880;52.342;9.662;2023-02-27T09:31:08;5.40;62.20
11647;DHT22;5880;52.342;9.662;2023-02-27T09:33:36;5.80;63.20
11647;DHT22;5880;52.342;9.662;2023-02-27T09:36:04;6.20;63.80
11647;DHT22;5880;52.342;9.662;2023-02-27T09:38:32;6.70;64.90
11647;DHT22;5880;52.342;9.662;2023-02-27T09:40:59;7.30;65.60
11647;DHT22;5880;52.342;9.662;2023-02-27T09:43:38;7.80;65.20
11647;DHT22;5880;52.342;9.662;2023-02-27T09:46:17;8.20;62.90
11647;DHT22;5880;52.342;9.662;2023-02-27T09:48:51;8.70;61.80
11647;DHT22;5880;52.342;9.662;2023-02-27T09:51:20;9.00;60.80
11647;DHT22;5880;52.342;9.662;2023-02-27T09:53:51;9.20;59.10
11647;DHT22;5880;52.342;9.662;2023-02-27T09:56:32;9.40;56.60
11647;DHT22;5880;52.342;9.662;2023-02-27T09:59:30;9.40;54.50
11647;DHT22;5880;52.342;9.662;2023-02-27T10:02:38;9.40;53.70
11647;DHT22;5880;52.342;9.662;2023-02-27T10:08:34;9.20;54.60
11647;DHT22;5880;52.342;9.662;2023-02-27T10:11:11;9.20;53.90
11647;DHT22;5880;52.342;9.662;2023-02-27T10:13:59;9.10;53.60
11647;DHT22;5880;52.342;9.662;2023-02-27T10:16:50;9.10;55.40
11647;DHT22;5880;52.342;9.662;2023-02-27T10:19:25;9.10;55.20
11647;DHT22;5880;52.342;9.662;2023-02-27T10:21:55;9.10;54.30
11647;DHT22;5880;52.342;9.662;2023-02-27T10:24:34;9.10;55.90
11647;DHT22;5880;52.342;9.662;2023-02-27T10:27:06;9.10;54.60
11647;DHT22;5880;52.342;9.662;2023-02-27T10:29:40;9.40;54.10
11647;DHT22;5880;52.342;9.662;2023-02-27T10:32:22;9.40;55.50
11647;DHT22;5880;52.342;9.662;2023-02-27T10:35:07;9.60;54.90
11647;DHT22;5880;52.342;9.662;2023-02-27T10:37:47;9.90;56.10
11647;DHT22;5880;52.342;9.662;2023-02-27T10:40:17;10.10;55.70
11647;DHT22;5880;52.342;9.662;2023-02-27T10:42:45;10.30;56.30
11647;DHT22;5880;52.342;9.662;2023-02-27T10:45:14;10.50;54.80
11647;DHT22;5880;52.342;9.662;2023-02-27T10:47:41;10.80;53.90
11647;DHT22;5880;52.342;9.662;2023-02-27T10:50:40;10.90;55.50
11647;DHT22;5880;52.342;9.662;2023-02-27T10:53:21;11.10;50.00
11647;DHT22;5880;52.342;9.662;2023-02-27T10:56:01;11.20;47.80
11647;DHT22;5880;52.342;9.662;2023-02-27T10:58:34;11.20;48.90
11647;DHT22;5880;52.342;9.662;2023-02-27T11:01:07;11.10;47.70
11647;DHT22;5880;52.342;9.662;2023-02-27T11:03:36;11.00;44.50
11647;DHT22;5880;52.342;9.662;2023-02-27T11:09:12;10.60;47.30
11647;DHT22;5880;52.342;9.662;2023-02-27T11:11:46;10.40;43.10
11647;DHT22;5880;52.342;9.662;2023-02-27T11:14:24;10.10;44.00
11647;DHT22;5880;52.342;9.662;2023-02-27T11:16:55;9.90;43.60
11647;DHT22;5880;52.342;9.662;2023-02-27T11:19:36;9.70;44.30
11647;DHT22;5880;52.342;9.662;2023-02-27T11:22:06;9.40;44.60
11647;DHT22;5880;52.342;9.662;2023-02-27T11:24:40;9.20;46.00
11647;DHT22;5880;52.342;9.662;2023-02-27T11:27:27;9.10;46.70
11647;DHT22;5880;52.342;9.662;2023-02-27T11:29:59;9.00;46.10
11647;DHT22;5880;52.342;9.662;2023-02-27T11:32:35;8.90;47.50
11647;DHT22;5880;52.342;9.662;2023-02-27T11:38:03;8.70;45.80
11647;DHT22;5880;52.342;9.662;2023-02-27T11:40:35;8.70;47.50
11647;DHT22;5880;52.342;9.662;2023-02-27T11:43:14;8.60;47.90
11647;DHT22;5880;52.342;9.662;2023-02-27T11:45:56;8.60;48.40
11647;DHT22;5880;52.342;9.662;2023-02-27T11:48:46;8.60;48.20
11647;DHT22;5880;52.342;9.662;2023-02-27T11:54:38;8.60;47.60
11647;DHT22;5880;52.342;9.662;2023-02-27T11:59:52;8.60;48.40
11647;DHT22;5880;52.342;9.662;2023-02-27T12:02:45;8.50;47.70
11647;DHT22;5880;52.342;9.662;2023-02-27T12:05:56;8.60;47.30
11647;DHT22;5880;52.342;9.662;2023-02-27T12:08:42;8.50;45.00
11647;DHT22;5880;52.342;9.662;2023-02-27T12:11:38;8.50;46.80
11647;DHT22;5880;52.342;9.662;2023-02-27T12:14:15;8.40;45.20
11647;DHT22;5880;52.342;9.662;2023-02-27T12:16:52;8.30;45.40
11647;DHT22;5880;52.342;9.662;2023-02-27T12:19:41;8.30;45.60
11647;DHT22;5880;52.342;9.662;2023-02-27T12:22:27;8.30;47.00
11647;DHT22;5880;52.342;9.662;2023-02-27T12:25:01;8.30;47.00
11647;DHT22;5880;52.342;9.662;2023-02-27T12:27:55;8.30;46.50
11647;DHT22;5880;52.342;9.662;2023-02-27T12:30:33;8.30;46.40
11647;DHT22;5880;52.342;9.662;2023-02-27T12:33:34;8.40;48.00
11647;DHT22;5880;52.342;9.662;2023-02-27T12:36:10;8.50;46.10
11647;DHT22;5880;52.342;9.662;2023-02-27T12:38:38;8.50;44.90
11647;DHT22;5880;52.342;9.662;2023-02-27T12:44:29;8.50;45.80
11647;DHT22;5880;52.342;9.662;2023-02-27T12:47:39;8.50;45.80
11647;DHT22;5880;52.342;9.662;2023-02-27T12:50:20;8.50;44.40
11647;DHT22;5880;52.342;9.662;2023-02-27T12:53:18;8.50;44.10
11647;DHT22;5880;52.342;9.662;2023-02-27T12:58:43;8.50;43.80
11647;DHT22;5880;52.342;9.662;2023-02-27T13:04:02;8.40;43.90
11647;DHT22;5880;52.342;9.662;2023-02-27T13:06:52;8.30;42.30
11647;DHT22;5880;52.342;9.662;2023-02-27T13:09:51;8.50;44.50
11647;DHT22;5880;52.342;9.662;2023-02-27T13:15:20;8.50;44.90
11647;DHT22;5880;52.342;9.662;2023-02-27T13:20:48;8.40;39.30
11647;DHT22;5880;52.342;9.662;2023-02-27T13:23:22;8.50;41.60
11647;DHT22;5880;52.342;9.662;2023-02-27T13:25:57;8.40;40.60
11647;DHT22;5880;52.342;9.662;2023-02-27T13:28:27;8.50;41.20
11647;DHT22;5880;52.342;9.662;2023-02-27T13:31:25;8.40;40.40
11647;DHT22;5880;52.342;9.662;2023-02-27T13:34:43;8.40;41.30
11647;DHT22;5880;52.342;9.662;2023-02-27T13:37:11;8.50;43.00
11647;DHT22;5880;52.342;9.662;2023-02-27T13:44:55;8.50;41.60
11647;DHT22;5880;52.342;9.662;2023-02-27T13:49:58;8.50;42.60
11647;DHT22;5880;52.342;9.662;2023-02-27T13:52:34;8.50;42.20
11647;DHT22;5880;52.342;9.662;2023-02-27T13:55:06;8.50;42.10
11647;DHT22;5880;52.342;9.662;2023-02-27T13:57:50;8.50;42.40
11647;DHT22;5880;52.342;9.662;2023-02-27T14:00:23;8.40;41.40
11647;DHT22;5880;52.342;9.662;2023-02-27T14:03:07;8.40;42.40
11647;DHT22;5880;52.342;9.662;2023-02-27T14:05:45;8.40;41.70
11647;DHT22;5880;52.342;9.662;2023-02-27T14:08:25;8.50;42.50
11647;DHT22;5880;52.342;9.662;2023-02-27T14:24:38;8.80;42.10
11647;DHT22;5880;52.342;9.662;2023-02-27T14:29:51;8.90;42.50
11647;DHT22;5880;52.342;9.662;2023-02-27T14:32:22;8.80;42.80
11647;DHT22;5880;52.342;9.662;2023-02-27T14:34:51;8.70;40.50
11647;DHT22;5880;52.342;9.662;2023-02-27T14:37:21;8.70;41.50
11647;DHT22;5880;52.342;9.662;2023-02-27T14:39:52;8.60;42.20
11647;DHT22;5880;52.342;9.662;2023-02-27T14:45:01;8.70;41.70
11647;DHT22;5880;52.342;9.662;2023-02-27T14:47:34;8.70;43.20
11647;DHT22;5880;52.342;9.662;2023-02-27T14:50:03;8.70;42.30
11647;DHT22;5880;52.342;9.662;2023-02-27T14:52:41;8.70;43.00
11647;DHT22;5880;52.342;9.662;2023-02-27T14:55:30;8.70;41.30
11647;DHT22;5880;52.342;9.662;2023-02-27T15:03:18;8.70;40.20
11647;DHT22;5880;52.342;9.662;2023-02-27T15:05:49;8.70;39.60
11647;DHT22;5880;52.342;9.662;2023-02-27T15:08:20;8.70;41.50
11647;DHT22;5880;52.342;9.662;2023-02-27T15:10:52;8.70;42.50
11647;DHT22;5880;52.342;9.662;2023-02-27T15:13:35;8.70;41.30
11647;DHT22;5880;52.342;9.662;2023-02-27T15:18:52;8.60;40.10
11647;DHT22;5880;52.342;9.662;2023-02-27T15:21:22;8.60;41.00
11647;DHT22;5880;52.342;9.662;2023-02-27T15:24:04;8.60;41.70
11647;DHT22;5880;52.342;9.662;2023-02-27T15:26:35;8.50;41.00
11647;DHT22;5880;52.342;9.662;2023-02-27T15:29:04;8.50;41.00
11647;DHT22;5880;52.342;9.662;2023-02-27T15:31:32;8.40;40.00
11647;DHT22;5880;52.342;9.662;2023-02-27T15:34:00;8.40;41.20
11647;DHT22;5880;52.342;9.662;2023-02-27T15:36:31;8.40;40.90
11647;DHT22;5880;52.342;9.662;2023-02-27T15:39:04;8.40;41.40
11647;DHT22;5880;52.342;9.662;2023-02-27T15:41:41;8.30;41.70
11647;DHT22;5880;52.342;9.662;2023-02-27T15:44:10;8.30;40.80
11647;DHT22;5880;52.342;9.662;2023-02-27T15:46:38;8.20;39.90
11647;DHT22;5880;52.342;9.662;2023-02-27T15:49:04;8.20;40.70
11647;DHT22;5880;52.342;9.662;2023-02-27T15:51:30;8.20;41.40
11647;DHT22;5880;52.342;9.662;2023-02-27T15:53:58;8.20;40.70
11647;DHT22;5880;52.342;9.662;2023-02-27T15:56:30;8.10;41.20
11647;DHT22;5880;52.342;9.662;2023-02-27T15:58:59;8.10;42.00
11647;DHT22;5880;52.342;9.662;2023-02-27T16:01:29;8.20;41.70
11647;DHT22;5880;52.342;9.662;2023-02-27T16:04:03;8.10;41.20
11647;DHT22;5880;52.342;9.662;2023-02-27T16:06:37;8.10;41.20
11647;DHT22;5880;52.342;9.662;2023-02-27T16:09:16;8.10;41.20
11647;DHT22;5880;52.342;9.662;2023-02-27T16:11:45;8.10;41.80
11647;DHT22;5880;52.342;9.662;2023-02-27T16:14:40;8.00;41.60
11647;DHT22;5880;52.342;9.662;2023-02-27T16:17:41;8.00;41.30
11647;DHT22;5880;52.342;9.662;2023-02-27T16:20:42;8.00;41.80
11647;DHT22;5880;52.342;9.662;2023-02-27T16:23:24;7.90;42.00
11647;DHT22;5880;52.342;9.662;2023-02-27T16:26:04;7.90;42.30
11647;DHT22;5880;52.342;9.662;2023-02-27T16:28:55;7.90;42.60
11647;DHT22;5880;52.342;9.662;2023-02-27T16:31:37;7.80;42.60
11647;DHT22;5880;52.342;9.662;2023-02-27T16:36:56;7.80;42.40
11647;DHT22;5880;52.342;9.662;2023-02-27T16:39:24;7.70;42.60
11647;DHT22;5880;52.342;9.662;2023-02-27T16:41:55;7.70;42.80
11647;DHT22;5880;52.342;9.662;2023-02-27T16:44:23;7.70;42.90
11647;DHT22;5880;52.342;9.662;2023-02-27T16:46:50;7.60;42.90
11647;DHT22;5880;52.342;9.662;2023-02-27T16:49:20;7.60;42.90
11647;DHT22;5880;52.342;9.662;2023-02-27T16:51:48;7.60;42.90
11647;DHT22;5880;52.342;9.662;2023-02-27T16:54:14;7.50;43.00
11647;DHT22;5880;52.342;9.662;2023-02-27T16:56:41;7.50;43.10
11647;DHT22;5880;52.342;9.662;2023-02-27T16:59:32;7.50;43.20
11647;DHT22;5880;52.342;9.662;2023-02-27T17:02:06;7.40;43.00
11647;DHT22;5880;52.342;9.662;2023-02-27T17:04:35;7.40;43.30
11647;DHT22;5880;52.342;9.662;2023-02-27T17:07:01;7.40;43.50
11647;DHT22;5880;52.342;9.662;2023-02-27T17:09:28;7.30;43.60
11647;DHT22;5880;52.342;9.662;2023-02-27T17:11:55;7.40;43.70
11647;DHT22;5880;52.342;9.662;2023-02-27T17:14:23;7.30;43.80
11647;DHT22;5880;52.342;9.662;2023-02-27T17:16:49;7.20;43.80
11647;DHT22;5880;52.342;9.662;2023-02-27T17:19:14;7.20;43.90
11647;DHT22;5880;52.342;9.662;2023-02-27T17:21:40;7.10;43.90
11647;DHT22;5880;52.342;9.662;2023-02-27T17:24:07;7.10;44.10
11647;DHT22;5880;52.342;9.662;2023-02-27T17:26:33;7.10;44.20
11647;DHT22;5880;52.342;9.662;2023-02-27T17:29:00;7.10;44.40
11647;DHT22;5880;52.342;9.662;2023-02-27T17:31:27;7.10;44.50
11647;DHT22;5880;52.342;9.662;2023-02-27T17:33:54;7.10;44.60
11647;DHT22;5880;52.342;9.662;2023-02-27T17:36:20;7.00;44.60
11647;DHT22;5880;52.342;9.662;2023-02-27T17:38:52;7.00;44.60
11647;DHT22;5880;52.342;9.662;2023-02-27T17:41:22;7.00;44.70
11647;DHT22;5880;52.342;9.662;2023-02-27T17:43:50;7.00;44.80
11647;DHT22;5880;52.342;9.662;2023-02-27T17:46:22;7.00;44.90
11647;DHT22;5880;52.342;9.662;2023-02-27T17:48:49;7.10;45.00
11647;DHT22;5880;52.342;9.662;2023-02-27T17:51:15;7.00;45.00
11647;DHT22;5880;52.342;9.662;2023-02-27T17:53:42;7.00;45.10
11647;DHT22;5880;52.342;9.662;2023-02-27T17:56:09;7.00;45.10
11647;DHT22;5880;52.342;9.662;2023-02-27T17:58:36;7.00;45.10
11647;DHT22;5880;52.342;9.662;2023-02-27T18:01:08;7.00;45.10
11647;DHT22;5880;52.342;9.662;2023-02-27T18:03:36;7.00;45.00
11647;DHT22;5880;52.342;9.662;2023-02-27T18:06:02;7.00;45.10
11647;DHT22;5880;52.342;9.662;2023-02-27T18:08:28;7.00;45.20
11647;DHT22;5880;52.342;9.662;2023-02-27T18:10:56;7.00;45.20
11647;DHT22;5880;52.342;9.662;2023-02-27T18:13:24;7.00;45.20
11647;DHT22;5880;52.342;9.662;2023-02-27T18:15:52;7.10;45.30
11647;DHT22;5880;52.342;9.662;2023-02-27T18:18:20;7.00;45.00
11647;DHT22;5880;52.342;9.662;2023-02-27T18:20:46;7.10;45.40
11647;DHT22;5880;52.342;9.662;2023-02-27T18:23:13;7.10;45.30
11647;DHT22;5880;52.342;9.662;2023-02-27T18:25:39;7.00;45.00
11647;DHT22;5880;52.342;9.662;2023-02-27T18:28:06;7.10;45.30
11647;DHT22;5880;52.342;9.662;2023-02-27T18:30:36;7.10;45.30
11647;DHT22;5880;52.342;9.662;2023-02-27T18:33:03;7.10;45.30
11647;DHT22;5880;52.342;9.662;2023-02-27T18:35:29;7.10;45.20
11647;DHT22;5880;52.342;9.662;2023-02-27T18:37:55;7.10;45.30
11647;DHT22;5880;52.342;9.662;2023-02-27T18:40:20;7.10;45.30
11647;DHT22;5880;52.342;9.662;2023-02-27T18:42:49;7.10;45.40
11647;DHT22;5880;52.342;9.662;2023-02-27T18:45:17;7.10;45.40
11647;DHT22;5880;52.342;9.662;2023-02-27T18:47:44;7.10;45.50